Pagrindinis puslapis
METAR-TAF:

METAR-TAF

Oro uostai :

Kauno oro uostas

Kaunas, Lietuva

platuma: 54-54N, ilguma: 023-55-12E, Aukštis: 77 m

Dabartinis oras

Ataskaita buvo paskelbta 1 valandą ir 22 minutes, ne 12:50 UTC
Vėjas 10 kt iš Šiaurės/Šiaurės Rytų, svyruoja nuo Šiaurės/Šiaurės Vakarų ir Rytų
Temperatūra 17°C
Drėgmė 34%
Slėgis 1018 hPa
Matomumas 10 km arba daugiau
nėra debesų žemiau 1500 m ir nėra kamuolinių lietaus debesų

METAR: EYKA 011250Z 02010KT 330V080 CAVOK 17/01 Q1018

Laikas: 17:12 (14:12 UTC)

Prognozė

Ataskaita buvo paskelbta 3 valandos ir 12 minutes, ne 11:00 UTC
Prognozė galioja nuo 01 metu 12 UTC su 02 metu 12 UTC
Vėjas 14 kt iš Šiaurės/Šiaurės Rytų su gūsio iki 24 kt
Matomumas: 9000 m
Išsisklaidę debesys ne aukštis 4000 ft
Laikinai
nuo 01 metu 18 UTC su 02 metu 08 UTC
Vėjas 4 kt nuo kintamojo kryptimis

TAF: EYKA 011100Z 0112/0212 03014G24KT 9000 SCT040 TEMPO 0118/0208 VRB04KT

Orai ataskaitas ir orų prognozės (METAR, TAF).

turimą stotys yra geltonos ir raudonos taškus žemėlapyje.

Perkelti pele per norėdami pamatyti stoties vardą.

Tada spustelėkite, norėdami matyti oro stebėjimo ir prognozės.

Norėdami pakeisti žemėlapį: spustelėkite ant žalios mygtukų su juodo kryžiaus žemyn,; žalią mygtuką su brūkšneliu, jei norite nutolinti; arba žalių rodyklių gretimoms žemėlapius.


METAR-TAF: